sensor_id;sensor_type;location;lat;lon;timestamp;pressure;altitude;pressure_sealevel;temperature;humidity
75788;BME280;64406;50.024;14.492;2023-07-16T00:04:35;97334.09;;;22.77;55.63
75788;BME280;64406;50.024;14.492;2023-07-16T00:07:01;97336.84;;;22.74;55.87
75788;BME280;64406;50.024;14.492;2023-07-16T00:09:26;97331.69;;;22.65;55.99
75788;BME280;64406;50.024;14.492;2023-07-16T00:11:52;97322.22;;;22.59;56.35
75788;BME280;64406;50.024;14.492;2023-07-16T00:14:18;97325.31;;;22.58;56.58
75788;BME280;64406;50.024;14.492;2023-07-16T00:16:43;97324.09;;;22.51;56.98
75788;BME280;64406;50.024;14.492;2023-07-16T00:19:14;97318.97;;;22.46;57.17
75788;BME280;64406;50.024;14.492;2023-07-16T00:21:40;97320.94;;;22.46;57.25
75788;BME280;64406;50.024;14.492;2023-07-16T00:24:06;97307.56;;;22.44;57.66
75788;BME280;64406;50.024;14.492;2023-07-16T00:26:32;97313.44;;;22.39;57.82
75788;BME280;64406;50.024;14.492;2023-07-16T00:28:57;97306.00;;;22.43;58.40
75788;BME280;64406;50.024;14.492;2023-07-16T00:31:23;97317.47;;;22.52;58.13
75788;BME280;64406;50.024;14.492;2023-07-16T00:33:48;97332.25;;;22.41;58.60
75788;BME280;64406;50.024;14.492;2023-07-16T00:36:14;97343.19;;;22.37;58.88
75788;BME280;64406;50.024;14.492;2023-07-16T00:38:40;97340.69;;;22.25;59.21
75788;BME280;64406;50.024;14.492;2023-07-16T00:41:07;97337.94;;;22.21;59.32
75788;BME280;64406;50.024;14.492;2023-07-16T00:43:32;97352.81;;;22.20;59.54
75788;BME280;64406;50.024;14.492;2023-07-16T00:45:58;97350.03;;;22.17;60.02
75788;BME280;64406;50.024;14.492;2023-07-16T00:48:24;97347.97;;;22.07;59.98
75788;BME280;64406;50.024;14.492;2023-07-16T00:50:50;97353.38;;;22.03;60.22
75788;BME280;64406;50.024;14.492;2023-07-16T00:53:17;97364.28;;;21.96;60.61
75788;BME280;64406;50.024;14.492;2023-07-16T00:55:45;97362.09;;;22.09;60.41
75788;BME280;64406;50.024;14.492;2023-07-16T00:58:10;97351.75;;;21.98;60.77
75788;BME280;64406;50.024;14.492;2023-07-16T01:00:38;97373.28;;;21.96;60.76
75788;BME280;64406;50.024;14.492;2023-07-16T01:03:10;97411.75;;;22.00;60.94
75788;BME280;64406;50.024;14.492;2023-07-16T01:08:36;97517.28;;;22.10;58.11
75788;BME280;64406;50.024;14.492;2023-07-16T01:11:04;97452.22;;;22.40;55.30
75788;BME280;64406;50.024;14.492;2023-07-16T01:13:29;97416.94;;;22.42;53.93
75788;BME280;64406;50.024;14.492;2023-07-16T01:15:56;97495.16;;;22.59;53.81
75788;BME280;64406;50.024;14.492;2023-07-16T01:18:21;97534.22;;;22.45;54.21
75788;BME280;64406;50.024;14.492;2023-07-16T01:20:47;97509.06;;;22.40;54.22
75788;BME280;64406;50.024;14.492;2023-07-16T01:32:36;97502.63;;;22.62;52.33
75788;BME280;64406;50.024;14.492;2023-07-16T01:35:03;97510.88;;;22.62;52.38
75788;BME280;64406;50.024;14.492;2023-07-16T01:37:30;97506.47;;;22.54;52.21
75788;BME280;64406;50.024;14.492;2023-07-16T01:39:55;97505.19;;;22.44;52.78
75788;BME280;64406;50.024;14.492;2023-07-16T01:42:21;97510.41;;;22.57;51.80
75788;BME280;64406;50.024;14.492;2023-07-16T01:44:47;97512.28;;;22.49;52.09
75788;BME280;64406;50.024;14.492;2023-07-16T01:49:58;97515.72;;;22.76;51.35
75788;BME280;64406;50.024;14.492;2023-07-16T01:52:24;97520.41;;;22.72;51.65
75788;BME280;64406;50.024;14.492;2023-07-16T01:54:50;97518.06;;;22.74;51.27
75788;BME280;64406;50.024;14.492;2023-07-16T01:57:15;97530.72;;;22.82;51.29
75788;BME280;64406;50.024;14.492;2023-07-16T01:59:41;97540.91;;;22.82;51.15
75788;BME280;64406;50.024;14.492;2023-07-16T02:02:06;97541.06;;;22.92;51.30
75788;BME280;64406;50.024;14.492;2023-07-16T02:04:32;97549.38;;;23.03;50.84
75788;BME280;64406;50.024;14.492;2023-07-16T02:06:58;97565.53;;;23.04;51.17
75788;BME280;64406;50.024;14.492;2023-07-16T02:09:23;97576.06;;;23.02;51.05
75788;BME280;64406;50.024;14.492;2023-07-16T02:11:51;97573.31;;;22.99;51.55
75788;BME280;64406;50.024;14.492;2023-07-16T02:14:16;97588.56;;;22.96;51.77
75788;BME280;64406;50.024;14.492;2023-07-16T02:16:42;97586.50;;;22.86;52.06
75788;BME280;64406;50.024;14.492;2023-07-16T02:19:08;97585.25;;;22.84;52.82
75788;BME280;64406;50.024;14.492;2023-07-16T02:21:34;97593.31;;;22.69;53.49
75788;BME280;64406;50.024;14.492;2023-07-16T02:23:59;97602.72;;;22.68;53.50
75788;BME280;64406;50.024;14.492;2023-07-16T02:26:25;97604.31;;;22.69;53.55
75788;BME280;64406;50.024;14.492;2023-07-16T02:28:50;97612.88;;;22.64;53.91
75788;BME280;64406;50.024;14.492;2023-07-16T02:31:16;97621.06;;;22.61;53.93
75788;BME280;64406;50.024;14.492;2023-07-16T02:33:42;97624.56;;;22.58;54.38
75788;BME280;64406;50.024;14.492;2023-07-16T02:36:08;97646.06;;;22.52;54.51
75788;BME280;64406;50.024;14.492;2023-07-16T02:38:33;97654.34;;;22.56;54.39
75788;BME280;64406;50.024;14.492;2023-07-16T02:40:59;97654.25;;;22.48;54.65
75788;BME280;64406;50.024;14.492;2023-07-16T02:43:24;97661.28;;;22.46;54.97
75788;BME280;64406;50.024;14.492;2023-07-16T02:45:50;97649.50;;;22.45;54.84
75788;BME280;64406;50.024;14.492;2023-07-16T02:48:16;97671.81;;;22.44;55.06
75788;BME280;64406;50.024;14.492;2023-07-16T02:50:41;97679.16;;;22.36;55.53
75788;BME280;64406;50.024;14.492;2023-07-16T02:53:08;97683.25;;;22.46;55.01
75788;BME280;64406;50.024;14.492;2023-07-16T02:55:37;97687.19;;;22.48;55.10
75788;BME280;64406;50.024;14.492;2023-07-16T02:58:02;97701.66;;;22.45;55.44
75788;BME280;64406;50.024;14.492;2023-07-16T03:00:31;97697.75;;;22.46;55.34
75788;BME280;64406;50.024;14.492;2023-07-16T03:02:56;97696.91;;;22.42;55.61
75788;BME280;64406;50.024;14.492;2023-07-16T03:05:24;97681.91;;;22.36;55.85
75788;BME280;64406;50.024;14.492;2023-07-16T03:07:50;97675.00;;;22.46;55.37
75788;BME280;64406;50.024;14.492;2023-07-16T03:10:16;97675.78;;;22.46;55.46
75788;BME280;64406;50.024;14.492;2023-07-16T03:12:41;97695.00;;;22.46;55.40
75788;BME280;64406;50.024;14.492;2023-07-16T03:15:07;97714.84;;;22.36;56.02
75788;BME280;64406;50.024;14.492;2023-07-16T03:17:33;97747.84;;;22.40;56.13
75788;BME280;64406;50.024;14.492;2023-07-16T03:19:59;97755.16;;;22.32;56.35
75788;BME280;64406;50.024;14.492;2023-07-16T03:22:24;97757.78;;;22.25;56.87
75788;BME280;64406;50.024;14.492;2023-07-16T03:24:50;97774.56;;;22.20;56.77
75788;BME280;64406;50.024;14.492;2023-07-16T03:27:16;97788.94;;;22.13;57.23
75788;BME280;64406;50.024;14.492;2023-07-16T03:29:41;97796.31;;;22.09;57.43
75788;BME280;64406;50.024;14.492;2023-07-16T03:32:07;97790.75;;;22.06;57.70
75788;BME280;64406;50.024;14.492;2023-07-16T03:34:33;97790.69;;;22.02;57.95
75788;BME280;64406;50.024;14.492;2023-07-16T03:36:58;97774.72;;;22.08;57.83
75788;BME280;64406;50.024;14.492;2023-07-16T03:39:24;97772.75;;;22.08;57.87
75788;BME280;64406;50.024;14.492;2023-07-16T03:41:50;97768.44;;;22.07;57.86
75788;BME280;64406;50.024;14.492;2023-07-16T03:44:15;97776.53;;;22.00;58.03
75788;BME280;64406;50.024;14.492;2023-07-16T03:46:41;97775.31;;;21.97;58.14
75788;BME280;64406;50.024;14.492;2023-07-16T03:49:07;97791.34;;;21.95;58.15
75788;BME280;64406;50.024;14.492;2023-07-16T03:51:33;97816.03;;;21.95;58.46
75788;BME280;64406;50.024;14.492;2023-07-16T03:53:59;97809.66;;;21.91;58.34
75788;BME280;64406;50.024;14.492;2023-07-16T03:56:24;97819.75;;;22.07;58.13
75788;BME280;64406;50.024;14.492;2023-07-16T03:58:50;97829.44;;;22.20;57.71
75788;BME280;64406;50.024;14.492;2023-07-16T04:01:15;97828.16;;;22.37;56.91
75788;BME280;64406;50.024;14.492;2023-07-16T04:03:41;97836.22;;;22.49;56.66
75788;BME280;64406;50.024;14.492;2023-07-16T04:06:08;97847.88;;;22.65;55.67
75788;BME280;64406;50.024;14.492;2023-07-16T04:08:37;97831.81;;;22.67;55.39
75788;BME280;64406;50.024;14.492;2023-07-16T04:11:04;97806.72;;;22.69;55.38
75788;BME280;64406;50.024;14.492;2023-07-16T04:13:30;97797.75;;;22.72;55.39
75788;BME280;64406;50.024;14.492;2023-07-16T04:15:56;97808.41;;;22.77;55.26
75788;BME280;64406;50.024;14.492;2023-07-16T04:18:24;97870.28;;;22.71;57.14
75788;BME280;64406;50.024;14.492;2023-07-16T04:20:49;97899.03;;;22.54;59.12
75788;BME280;64406;50.024;14.492;2023-07-16T04:23:15;97899.81;;;22.32;61.53
75788;BME280;64406;50.024;14.492;2023-07-16T04:25:41;97891.66;;;21.96;63.12
75788;BME280;64406;50.024;14.492;2023-07-16T04:28:07;97902.84;;;21.68;64.62
75788;BME280;64406;50.024;14.492;2023-07-16T04:30:32;97915.94;;;21.40;65.49
75788;BME280;64406;50.024;14.492;2023-07-16T04:32:58;97919.81;;;21.23;65.88
75788;BME280;64406;50.024;14.492;2023-07-16T04:35:24;97932.47;;;21.12;67.26
75788;BME280;64406;50.024;14.492;2023-07-16T04:37:50;97924.00;;;21.01;68.40
75788;BME280;64406;50.024;14.492;2023-07-16T04:40:15;97926.75;;;20.85;69.91
75788;BME280;64406;50.024;14.492;2023-07-16T04:42:41;97968.06;;;20.36;79.31
75788;BME280;64406;50.024;14.492;2023-07-16T04:45:06;97988.22;;;19.76;80.43
75788;BME280;64406;50.024;14.492;2023-07-16T04:47:32;97983.31;;;19.45;81.45
75788;BME280;64406;50.024;14.492;2023-07-16T04:49:58;97947.81;;;19.20;83.69
75788;BME280;64406;50.024;14.492;2023-07-16T04:52:24;97947.72;;;19.17;83.99
75788;BME280;64406;50.024;14.492;2023-07-16T04:54:50;97962.72;;;18.98;85.20
75788;BME280;64406;50.024;14.492;2023-07-16T04:57:16;97975.44;;;18.94;86.54
75788;BME280;64406;50.024;14.492;2023-07-16T04:59:41;97975.34;;;18.91;87.30
75788;BME280;64406;50.024;14.492;2023-07-16T05:02:07;97971.13;;;18.93;86.25
75788;BME280;64406;50.024;14.492;2023-07-16T05:04:34;97969.63;;;18.84;88.05
75788;BME280;64406;50.024;14.492;2023-07-16T05:07:03;97966.69;;;18.77;87.99
75788;BME280;64406;50.024;14.492;2023-07-16T05:09:29;97956.19;;;18.66;89.57
75788;BME280;64406;50.024;14.492;2023-07-16T05:11:55;97962.91;;;18.69;89.25
75788;BME280;64406;50.024;14.492;2023-07-16T05:14:21;97957.09;;;18.70;91.00
75788;BME280;64406;50.024;14.492;2023-07-16T05:16:47;97941.06;;;18.81;91.51
75788;BME280;64406;50.024;14.492;2023-07-16T05:19:12;97930.28;;;18.85;92.74
75788;BME280;64406;50.024;14.492;2023-07-16T05:21:38;97910.03;;;18.86;92.87
75788;BME280;64406;50.024;14.492;2023-07-16T05:24:04;97912.09;;;18.89;93.72
75788;BME280;64406;50.024;14.492;2023-07-16T05:26:30;97906.53;;;18.97;93.03
75788;BME280;64406;50.024;14.492;2023-07-16T05:28:56;97904.03;;;19.05;92.85
75788;BME280;64406;50.024;14.492;2023-07-16T05:31:21;97936.56;;;18.97;92.08
75788;BME280;64406;50.024;14.492;2023-07-16T05:33:47;97943.59;;;18.86;92.00
75788;BME280;64406;50.024;14.492;2023-07-16T05:36:13;97956.91;;;19.00;92.02
75788;BME280;64406;50.024;14.492;2023-07-16T05:38:38;97944.97;;;19.05;92.57
75788;BME280;64406;50.024;14.492;2023-07-16T05:41:04;97942.34;;;19.08;92.69
75788;BME280;64406;50.024;14.492;2023-07-16T05:43:31;97959.41;;;19.05;93.94
75788;BME280;64406;50.024;14.492;2023-07-16T05:45:56;97958.25;;;18.94;94.70
75788;BME280;64406;50.024;14.492;2023-07-16T05:48:23;97951.44;;;19.00;94.11
75788;BME280;64406;50.024;14.492;2023-07-16T05:50:48;97941.78;;;19.02;94.15
75788;BME280;64406;50.024;14.492;2023-07-16T05:53:14;97918.91;;;19.07;94.01
75788;BME280;64406;50.024;14.492;2023-07-16T05:55:40;97907.63;;;19.21;93.61
75788;BME280;64406;50.024;14.492;2023-07-16T05:58:06;97909.25;;;19.22;93.80
75788;BME280;64406;50.024;14.492;2023-07-16T06:00:31;97890.66;;;19.27;94.15
75788;BME280;64406;50.024;14.492;2023-07-16T06:02:58;97883.59;;;19.39;93.32
75788;BME280;64406;50.024;14.492;2023-07-16T06:05:24;97894.56;;;19.26;93.11
75788;BME280;64406;50.024;14.492;2023-07-16T06:07:52;97913.00;;;19.17;92.45
75788;BME280;64406;50.024;14.492;2023-07-16T06:10:18;97928.94;;;19.15;91.74
75788;BME280;64406;50.024;14.492;2023-07-16T06:12:43;97909.00;;;19.27;91.88
75788;BME280;64406;50.024;14.492;2023-07-16T06:15:09;97895.56;;;19.34;92.17
75788;BME280;64406;50.024;14.492;2023-07-16T06:17:35;97893.59;;;19.59;91.12
75788;BME280;64406;50.024;14.492;2023-07-16T06:20:02;97906.59;;;19.50;91.34
75788;BME280;64406;50.024;14.492;2023-07-16T06:22:28;97918.19;;;19.59;91.24
75788;BME280;64406;50.024;14.492;2023-07-16T06:24:53;97926.81;;;19.73;91.00
75788;BME280;64406;50.024;14.492;2023-07-16T06:27:19;97920.97;;;19.87;90.45
75788;BME280;64406;50.024;14.492;2023-07-16T06:29:45;97908.16;;;20.03;88.39
75788;BME280;64406;50.024;14.492;2023-07-16T06:32:10;97898.44;;;20.34;86.52
75788;BME280;64406;50.024;14.492;2023-07-16T06:34:36;97886.97;;;20.44;87.34
75788;BME280;64406;50.024;14.492;2023-07-16T06:37:01;97899.63;;;20.49;87.10
75788;BME280;64406;50.024;14.492;2023-07-16T06:39:27;97907.84;;;20.49;84.95
75788;BME280;64406;50.024;14.492;2023-07-16T06:41:53;97896.81;;;20.33;86.49
75788;BME280;64406;50.024;14.492;2023-07-16T06:44:19;97903.91;;;20.34;87.27
75788;BME280;64406;50.024;14.492;2023-07-16T06:46:44;97919.41;;;20.14;87.54
75788;BME280;64406;50.024;14.492;2023-07-16T06:49:10;97922.22;;;20.18;86.53
75788;BME280;64406;50.024;14.492;2023-07-16T06:51:35;97936.59;;;20.15;88.35
75788;BME280;64406;50.024;14.492;2023-07-16T06:54:01;97944.84;;;20.02;87.30
75788;BME280;64406;50.024;14.492;2023-07-16T06:56:26;97940.75;;;19.96;87.54
75788;BME280;64406;50.024;14.492;2023-07-16T06:58:52;97941.44;;;19.93;88.23
75788;BME280;64406;50.024;14.492;2023-07-16T07:03:43;97940.53;;;20.01;87.67
75788;BME280;64406;50.024;14.492;2023-07-16T07:06:09;97940.38;;;20.10;87.61
75788;BME280;64406;50.024;14.492;2023-07-16T07:08:36;97943.13;;;20.26;86.81
75788;BME280;64406;50.024;14.492;2023-07-16T07:11:03;97929.28;;;20.19;84.08
75788;BME280;64406;50.024;14.492;2023-07-16T07:13:29;97949.81;;;20.41;84.89
75788;BME280;64406;50.024;14.492;2023-07-16T07:15:55;97946.50;;;20.47;85.35
75788;BME280;64406;50.024;14.492;2023-07-16T07:18:21;97949.25;;;20.79;85.19
75788;BME280;64406;50.024;14.492;2023-07-16T07:20:46;97956.00;;;20.81;83.81
75788;BME280;64406;50.024;14.492;2023-07-16T07:23:15;97960.22;;;20.95;84.10
75788;BME280;64406;50.024;14.492;2023-07-16T07:25:41;97964.72;;;21.03;83.20
75788;BME280;64406;50.024;14.492;2023-07-16T07:28:07;97960.22;;;21.26;81.44
75788;BME280;64406;50.024;14.492;2023-07-16T07:30:32;97964.97;;;21.45;81.75
75788;BME280;64406;50.024;14.492;2023-07-16T07:32:58;97962.75;;;21.51;80.87
75788;BME280;64406;50.024;14.492;2023-07-16T07:35:24;97961.75;;;21.59;80.20
75788;BME280;64406;50.024;14.492;2023-07-16T07:37:50;97963.47;;;21.83;77.28
75788;BME280;64406;50.024;14.492;2023-07-16T07:40:15;97961.97;;;21.50;79.26
75788;BME280;64406;50.024;14.492;2023-07-16T07:42:41;97980.19;;;21.27;79.67
75788;BME280;64406;50.024;14.492;2023-07-16T07:45:07;97979.66;;;21.37;80.80
75788;BME280;64406;50.024;14.492;2023-07-16T07:47:33;97977.13;;;21.98;78.03
75788;BME280;64406;50.024;14.492;2023-07-16T07:49:58;97982.56;;;21.60;78.38
75788;BME280;64406;50.024;14.492;2023-07-16T07:52:26;97975.44;;;21.75;77.68
75788;BME280;64406;50.024;14.492;2023-07-16T07:54:52;97984.13;;;21.96;79.17
75788;BME280;64406;50.024;14.492;2023-07-16T07:57:19;97994.81;;;22.01;78.46
75788;BME280;64406;50.024;14.492;2023-07-16T07:59:45;97996.22;;;22.30;77.54
75788;BME280;64406;50.024;14.492;2023-07-16T08:02:11;97995.38;;;22.45;74.33
75788;BME280;64406;50.024;14.492;2023-07-16T08:04:36;97996.06;;;22.42;71.21
75788;BME280;64406;50.024;14.492;2023-07-16T08:07:02;97992.91;;;22.40;71.00
75788;BME280;64406;50.024;14.492;2023-07-16T08:09:27;97994.78;;;22.36;71.56
75788;BME280;64406;50.024;14.492;2023-07-16T08:11:53;97999.56;;;22.82;71.75
75788;BME280;64406;50.024;14.492;2023-07-16T08:14:19;98000.88;;;22.88;67.76
75788;BME280;64406;50.024;14.492;2023-07-16T08:16:44;98007.28;;;22.95;66.91
75788;BME280;64406;50.024;14.492;2023-07-16T08:19:10;98013.19;;;23.43;66.91
75788;BME280;64406;50.024;14.492;2023-07-16T08:21:35;98005.84;;;22.59;68.01
75788;BME280;64406;50.024;14.492;2023-07-16T08:24:06;98014.34;;;22.73;69.17
75788;BME280;64406;50.024;14.492;2023-07-16T08:26:32;98011.09;;;22.68;68.68
75788;BME280;64406;50.024;14.492;2023-07-16T08:28:58;98012.81;;;22.57;69.11
75788;BME280;64406;50.024;14.492;2023-07-16T08:31:24;98015.94;;;22.55;70.82
75788;BME280;64406;50.024;14.492;2023-07-16T08:33:50;98000.88;;;22.26;68.23
75788;BME280;64406;50.024;14.492;2023-07-16T08:36:16;98008.50;;;22.36;69.24
75788;BME280;64406;50.024;14.492;2023-07-16T08:38:41;98031.91;;;22.30;67.86
75788;BME280;64406;50.024;14.492;2023-07-16T08:41:07;98020.13;;;22.49;66.78
75788;BME280;64406;50.024;14.492;2023-07-16T08:43:33;98009.94;;;22.30;64.13
75788;BME280;64406;50.024;14.492;2023-07-16T08:46:00;98026.00;;;22.47;64.14
75788;BME280;64406;50.024;14.492;2023-07-16T08:48:28;98007.56;;;22.48;63.11
75788;BME280;64406;50.024;14.492;2023-07-16T08:50:55;98013.75;;;22.45;62.19
75788;BME280;64406;50.024;14.492;2023-07-16T08:53:22;98026.69;;;22.44;61.50
75788;BME280;64406;50.024;14.492;2023-07-16T08:55:48;98026.94;;;22.36;60.57
75788;BME280;64406;50.024;14.492;2023-07-16T08:58:14;98037.03;;;22.51;62.02
75788;BME280;64406;50.024;14.492;2023-07-16T09:00:47;98059.78;;;22.13;61.66
75788;BME280;64406;50.024;14.492;2023-07-16T09:03:14;98035.00;;;22.48;62.06
75788;BME280;64406;50.024;14.492;2023-07-16T09:05:44;98047.66;;;22.33;62.20
75788;BME280;64406;50.024;14.492;2023-07-16T09:08:10;98049.16;;;22.31;61.54
75788;BME280;64406;50.024;14.492;2023-07-16T09:10:36;98044.03;;;22.48;61.86
75788;BME280;64406;50.024;14.492;2023-07-16T09:13:01;98043.53;;;22.23;61.41
75788;BME280;64406;50.024;14.492;2023-07-16T09:15:28;98049.63;;;22.52;60.88
75788;BME280;64406;50.024;14.492;2023-07-16T09:17:55;98051.03;;;22.85;59.82
75788;BME280;64406;50.024;14.492;2023-07-16T09:20:21;98056.31;;;22.74;58.41
75788;BME280;64406;50.024;14.492;2023-07-16T09:22:49;98058.13;;;22.86;57.52
75788;BME280;64406;50.024;14.492;2023-07-16T09:25:15;98057.50;;;23.15;56.17
75788;BME280;64406;50.024;14.492;2023-07-16T09:27:40;98060.00;;;23.01;57.13
75788;BME280;64406;50.024;14.492;2023-07-16T09:30:07;98064.03;;;23.07;56.83
75788;BME280;64406;50.024;14.492;2023-07-16T09:32:39;98082.81;;;23.24;55.55
75788;BME280;64406;50.024;14.492;2023-07-16T09:35:15;98069.91;;;23.74;54.92
75788;BME280;64406;50.024;14.492;2023-07-16T09:37:42;98074.19;;;23.26;55.10
75788;BME280;64406;50.024;14.492;2023-07-16T09:40:09;98076.75;;;23.61;55.46
75788;BME280;64406;50.024;14.492;2023-07-16T09:42:37;98089.09;;;23.48;54.75
75788;BME280;64406;50.024;14.492;2023-07-16T09:45:05;98077.00;;;23.52;54.38
75788;BME280;64406;50.024;14.492;2023-07-16T09:47:31;98082.66;;;23.86;54.58
75788;BME280;64406;50.024;14.492;2023-07-16T09:49:57;98095.75;;;23.47;55.28
75788;BME280;64406;50.024;14.492;2023-07-16T09:52:26;98118.63;;;23.09;54.16
75788;BME280;64406;50.024;14.492;2023-07-16T09:54:55;98088.63;;;22.80;54.39
75788;BME280;64406;50.024;14.492;2023-07-16T09:57:23;98092.97;;;22.62;55.09
75788;BME280;64406;50.024;14.492;2023-07-16T09:59:52;98089.56;;;22.69;54.43
75788;BME280;64406;50.024;14.492;2023-07-16T10:02:20;98115.97;;;22.38;53.39
75788;BME280;64406;50.024;14.492;2023-07-16T10:04:46;98104.25;;;22.22;53.38
75788;BME280;64406;50.024;14.492;2023-07-16T10:07:25;98123.22;;;22.11;53.07
75788;BME280;64406;50.024;14.492;2023-07-16T10:09:54;98111.53;;;22.14;53.88
75788;BME280;64406;50.024;14.492;2023-07-16T10:12:22;98105.47;;;22.24;54.43
75788;BME280;64406;50.024;14.492;2023-07-16T10:14:53;98098.72;;;22.57;52.46
75788;BME280;64406;50.024;14.492;2023-07-16T10:17:20;98099.25;;;22.63;53.81
75788;BME280;64406;50.024;14.492;2023-07-16T10:19:48;98091.22;;;22.35;52.51
75788;BME280;64406;50.024;14.492;2023-07-16T10:22:13;98097.00;;;22.68;52.91
75788;BME280;64406;50.024;14.492;2023-07-16T10:24:39;98101.13;;;22.97;52.90
75788;BME280;64406;50.024;14.492;2023-07-16T10:27:05;98095.69;;;22.82;52.46
75788;BME280;64406;50.024;14.492;2023-07-16T10:29:31;98094.41;;;22.75;52.72
75788;BME280;64406;50.024;14.492;2023-07-16T10:31:58;98097.09;;;23.33;51.29
75788;BME280;64406;50.024;14.492;2023-07-16T10:34:24;98103.16;;;22.81;52.99
75788;BME280;64406;50.024;14.492;2023-07-16T10:36:50;98113.97;;;22.35;54.14
75788;BME280;64406;50.024;14.492;2023-07-16T10:39:16;98104.25;;;22.96;53.71
75788;BME280;64406;50.024;14.492;2023-07-16T10:41:42;98105.53;;;23.02;54.36
75788;BME280;64406;50.024;14.492;2023-07-16T10:44:08;98100.97;;;23.10;52.97
75788;BME280;64406;50.024;14.492;2023-07-16T10:46:36;98109.00;;;23.18;52.27
75788;BME280;64406;50.024;14.492;2023-07-16T10:49:02;98104.47;;;22.87;52.92
75788;BME280;64406;50.024;14.492;2023-07-16T10:51:28;98106.53;;;22.74;53.30
75788;BME280;64406;50.024;14.492;2023-07-16T10:53:57;98096.78;;;23.39;52.45
75788;BME280;64406;50.024;14.492;2023-07-16T10:56:23;98114.44;;;22.95;53.94
75788;BME280;64406;50.024;14.492;2023-07-16T10:58:48;98116.63;;;22.86;54.15
75788;BME280;64406;50.024;14.492;2023-07-16T11:01:14;98117.88;;;22.53;55.22
75788;BME280;64406;50.024;14.492;2023-07-16T11:03:40;98117.59;;;22.39;54.62
75788;BME280;64406;50.024;14.492;2023-07-16T11:06:08;98129.75;;;22.07;55.88
75788;BME280;64406;50.024;14.492;2023-07-16T11:08:33;98129.31;;;22.05;56.27
75788;BME280;64406;50.024;14.492;2023-07-16T11:10:59;98130.50;;;21.88;56.70
75788;BME280;64406;50.024;14.492;2023-07-16T11:13:29;98134.91;;;21.92;56.53
75788;BME280;64406;50.024;14.492;2023-07-16T11:15:56;98135.53;;;21.86;56.90
75788;BME280;64406;50.024;14.492;2023-07-16T11:18:23;98135.00;;;21.80;56.89
75788;BME280;64406;50.024;14.492;2023-07-16T11:20:53;98131.56;;;21.83;56.69
75788;BME280;64406;50.024;14.492;2023-07-16T11:23:19;98130.94;;;21.74;57.05
75788;BME280;64406;50.024;14.492;2023-07-16T11:25:48;98129.34;;;21.73;57.51
75788;BME280;64406;50.024;14.492;2023-07-16T11:28:15;98133.06;;;21.65;58.24
75788;BME280;64406;50.024;14.492;2023-07-16T11:30:40;98135.72;;;21.77;58.81
75788;BME280;64406;50.024;14.492;2023-07-16T11:33:10;98138.00;;;21.75;58.07
75788;BME280;64406;50.024;14.492;2023-07-16T11:35:37;98129.25;;;22.01;58.55
75788;BME280;64406;50.024;14.492;2023-07-16T11:38:06;98128.63;;;21.76;59.11
75788;BME280;64406;50.024;14.492;2023-07-16T11:40:34;98133.84;;;21.50;58.76
75788;BME280;64406;50.024;14.492;2023-07-16T11:43:08;98137.94;;;21.40;60.31
75788;BME280;64406;50.024;14.492;2023-07-16T11:45:34;98131.03;;;21.18;61.56
75788;BME280;64406;50.024;14.492;2023-07-16T11:48:00;98135.81;;;21.21;61.70
75788;BME280;64406;50.024;14.492;2023-07-16T11:50:25;98130.16;;;21.14;60.13
75788;BME280;64406;50.024;14.492;2023-07-16T11:53:00;98113.03;;;20.89;59.77
75788;BME280;64406;50.024;14.492;2023-07-16T11:55:26;98116.91;;;21.16;60.95
75788;BME280;64406;50.024;14.492;2023-07-16T11:57:52;98125.09;;;21.00;59.40
75788;BME280;64406;50.024;14.492;2023-07-16T12:00:18;98113.25;;;21.12;58.34
75788;BME280;64406;50.024;14.492;2023-07-16T12:02:44;98107.94;;;21.79;59.45
75788;BME280;64406;50.024;14.492;2023-07-16T12:05:22;98119.19;;;22.60;55.25
75788;BME280;64406;50.024;14.492;2023-07-16T12:07:52;98110.56;;;22.42;55.23
75788;BME280;64406;50.024;14.492;2023-07-16T12:10:17;98103.69;;;22.13;55.33
75788;BME280;64406;50.024;14.492;2023-07-16T12:12:43;98115.72;;;22.63;54.70
75788;BME280;64406;50.024;14.492;2023-07-16T12:15:09;98108.28;;;22.83;52.99
75788;BME280;64406;50.024;14.492;2023-07-16T12:17:35;98107.31;;;22.36;52.86
75788;BME280;64406;50.024;14.492;2023-07-16T12:20:01;98105.22;;;22.49;53.04
75788;BME280;64406;50.024;14.492;2023-07-16T12:22:29;98103.00;;;22.55;53.10
75788;BME280;64406;50.024;14.492;2023-07-16T12:24:55;98103.88;;;22.97;52.47
75788;BME280;64406;50.024;14.492;2023-07-16T12:27:21;98108.91;;;22.37;53.46
75788;BME280;64406;50.024;14.492;2023-07-16T12:29:46;98115.00;;;22.66;53.42
75788;BME280;64406;50.024;14.492;2023-07-16T12:32:13;98113.78;;;21.93;54.50
75788;BME280;64406;50.024;14.492;2023-07-16T12:34:39;98110.94;;;21.89;55.74
75788;BME280;64406;50.024;14.492;2023-07-16T12:37:05;98116.41;;;21.89;55.07
75788;BME280;64406;50.024;14.492;2023-07-16T12:39:32;98104.56;;;21.85;55.04
75788;BME280;64406;50.024;14.492;2023-07-16T12:41:58;98108.97;;;21.90;55.19
75788;BME280;64406;50.024;14.492;2023-07-16T12:44:23;98091.03;;;21.92;55.55
75788;BME280;64406;50.024;14.492;2023-07-16T12:46:49;98100.78;;;21.74;55.31
75788;BME280;64406;50.024;14.492;2023-07-16T12:49:15;98092.91;;;21.73;55.42
75788;BME280;64406;50.024;14.492;2023-07-16T12:51:40;98097.91;;;22.02;55.59
75788;BME280;64406;50.024;14.492;2023-07-16T12:54:06;98090.19;;;22.23;55.29
75788;BME280;64406;50.024;14.492;2023-07-16T12:56:32;98080.59;;;22.33;54.40
75788;BME280;64406;50.024;14.492;2023-07-16T12:58:58;98095.69;;;22.82;53.09
75788;BME280;64406;50.024;14.492;2023-07-16T13:01:24;98097.19;;;25.40;47.15
75788;BME280;64406;50.024;14.492;2023-07-16T13:03:49;98097.69;;;24.79;48.70
75788;BME280;64406;50.024;14.492;2023-07-16T13:06:15;98075.25;;;31.53;34.96